»·PEaware :: N1DB KOAK-KSNA

N1DB :: KOAK-KSNA

FLIGHT INFORMATION

Flight Status: Arrived
Operator: Privately registered:
United States
More flights under this callsign
Pilot: Dominic B. (18944)
Aircraft: AIRBUS A319
(A319)
More flights by this aircraft type
Origin: KOAK Metro Oakland Intl
United States
Destination: KSNA John Wayne-Orange Co
United States
More flights between these airports :: More routes between these airports
Route: +CNDEL4 YYUNG TILLT TILLT2
File this flight plan on PilotEdge
Remarks: RMK / SIMBRIEF
Altitude:
(Current/Filed)
37,000ft
Speed:
(Current/Filed)
436kts
Departed: 30-Nov-20 06:46 PM
Arrived: 30-Nov-20 07:49 PM
Distance/Time
Traveled:
322nm/1:03
Distance/Time
To Go:
Arrived

Flight Plot

Page will automatically refresh every two minutes.

Flight plan parsing failed; only flown route is shown


Map Options




Map Legend


Flown Route
Filed Route
Departure Airport
Arrival Airport
Navaid (VOR, NDB)
Fix

Horizontal Profiles

Position Reports

Time Latitude Longitude Heading Altitude Ground
Speed
30-Nov-20 18:02 37.711038 -122.216653 117 15ft 0kts
30-Nov-20 18:03 37.711038 -122.216653 117 15ft 0kts
30-Nov-20 18:05 37.711038 -122.216653 117 15ft 0kts
30-Nov-20 18:06 37.711038 -122.216653 117 15ft 0kts
30-Nov-20 18:07 37.711038 -122.216653 117 15ft 0kts
30-Nov-20 18:08 37.711038 -122.216653 117 15ft 0kts
30-Nov-20 18:09 37.711038 -122.216653 117 15ft 0kts
30-Nov-20 18:10 37.711038 -122.216653 117 15ft 0kts
30-Nov-20 18:11 37.711038 -122.216653 117 15ft 0kts
30-Nov-20 18:12 37.711038 -122.216653 117 15ft 0kts
30-Nov-20 18:13 37.711038 -122.216653 117 15ft 0kts
30-Nov-20 18:14 37.711038 -122.216653 117 15ft 0kts
30-Nov-20 18:15 37.711038 -122.216653 117 15ft 0kts
30-Nov-20 18:16 37.711038 -122.216653 117 15ft 0kts
30-Nov-20 18:17 37.711038 -122.216653 117 15ft 0kts
30-Nov-20 18:18 37.711038 -122.216653 117 15ft 0kts
30-Nov-20 18:19 37.711038 -122.216653 117 15ft 0kts
30-Nov-20 18:20 37.711038 -122.216653 117 15ft 0kts
30-Nov-20 18:21 37.711038 -122.216653 117 15ft 0kts
30-Nov-20 18:22 37.711038 -122.216653 117 15ft 0kts
30-Nov-20 18:22 37.711038 -122.216653 117 15ft 0kts
30-Nov-20 18:24 37.711038 -122.216653 117 15ft 0kts
30-Nov-20 18:24 37.711038 -122.216653 117 15ft 0kts
30-Nov-20 18:26 37.711038 -122.216653 117 15ft 0kts
30-Nov-20 18:26 37.711038 -122.216653 117 15ft 0kts
30-Nov-20 18:28 37.711038 -122.216653 117 15ft 0kts
30-Nov-20 18:28 37.711038 -122.216653 117 15ft 0kts
30-Nov-20 18:29 37.711038 -122.216653 117 15ft 0kts
30-Nov-20 18:30 37.711038 -122.216653 117 15ft 0kts
30-Nov-20 18:31 37.711177 -122.216986 118 15ft 2kts
30-Nov-20 18:32 37.711336 -122.217122 224 15ft 1kts
30-Nov-20 18:33 37.711353 -122.217101 222 15ft 0kts
30-Nov-20 18:34 37.711353 -122.217101 222 15ft 0kts
30-Nov-20 18:35 37.711353 -122.217101 222 15ft 0kts
30-Nov-20 18:36 37.711353 -122.217101 222 15ft 0kts
30-Nov-20 18:37 37.711353 -122.217101 222 15ft 0kts
30-Nov-20 18:38 37.711169 -122.217454 237 15ft 0kts
30-Nov-20 18:39 37.709863 -122.217082 127 15ft 12kts
30-Nov-20 18:40 37.707103 -122.217654 210 15ft 15kts
30-Nov-20 18:41 37.702939 -122.213625 166 15ft 19kts
30-Nov-20 18:42 37.702348 -122.213644 204 15ft 0kts
30-Nov-20 18:43 37.702207 -122.213729 207 15ft 7kts
30-Nov-20 18:44 37.701926 -122.214879 311 15ft 0kts
30-Nov-20 18:45 37.703074 -122.216554 310 15ft 64kts
30-Nov-20 18:46 37.728941 -122.255649 309 1895ft 176kts
30-Nov-20 18:47 37.764074 -122.308923 310 2545ft 206kts
30-Nov-20 18:48 37.788308 -122.381436 248 5720ft 266kts
30-Nov-20 18:49 37.719700 -122.417347 193 9536ft 290kts
30-Nov-20 18:50 37.636733 -122.437933 195 12578ft 319kts
30-Nov-20 18:51 37.548203 -122.460435 194 15584ft 335kts
30-Nov-20 18:52 37.454811 -122.481874 191 18319ft 350kts
30-Nov-20 18:53 37.356560 -122.500050 191 20581ft 370kts
30-Nov-20 18:54 37.247136 -122.520371 190 21597ft 422kts
30-Nov-20 18:55 37.129003 -122.542184 190 23685ft 436kts
30-Nov-20 18:56 37.007130 -122.556333 170 25540ft 451kts
30-Nov-20 18:58 36.877745 -122.470875 148 27626ft 458kts
30-Nov-20 18:58 36.785605 -122.402795 149 28838ft 467kts
30-Nov-20 18:59 36.673026 -122.320444 149 30139ft 477kts
30-Nov-20 19:00 36.557282 -122.236057 150 31335ft 486kts
30-Nov-20 19:01 36.439572 -122.150572 150 32586ft 491kts
30-Nov-20 19:02 36.322206 -122.065628 151 33988ft 489kts
30-Nov-20 19:03 36.204950 -121.981084 152 35183ft 489kts
30-Nov-20 19:04 36.087320 -121.896594 153 36225ft 489kts
30-Nov-20 19:05 35.978863 -121.794696 136 37085ft 498kts
30-Nov-20 19:06 35.890909 -121.661122 128 37231ft 502kts
30-Nov-20 19:07 35.805420 -121.525343 128 37212ft 503kts
30-Nov-20 19:08 35.719432 -121.389397 129 37205ft 504kts
30-Nov-20 19:09 35.633276 -121.253294 129 37205ft 505kts
30-Nov-20 19:10 35.546394 -121.116946 130 37205ft 506kts
30-Nov-20 19:11 35.447836 -120.994773 141 37205ft 503kts
30-Nov-20 19:12 35.343192 -120.882267 141 37187ft 504kts
30-Nov-20 19:13 35.237961 -120.768870 141 37178ft 505kts
30-Nov-20 19:14 35.132366 -120.655440 141 37177ft 506kts
30-Nov-20 19:15 35.024562 -120.545305 149 37176ft 504kts
30-Nov-20 19:16 34.907671 -120.450757 151 37177ft 506kts
30-Nov-20 19:17 34.790008 -120.356115 151 37173ft 508kts
30-Nov-20 19:18 34.671311 -120.260173 152 37163ft 511kts
30-Nov-20 19:19 34.552697 -120.165317 153 37155ft 513kts
30-Nov-20 19:20 34.433657 -120.070412 153 36908ft 513kts
30-Nov-20 19:21 34.312579 -119.974322 152 32826ft 527kts
30-Nov-20 19:22 34.193907 -119.880422 150 29120ft 491kts
30-Nov-20 19:23 34.086633 -119.793256 138 27502ft 447kts
30-Nov-20 19:24 34.017144 -119.672132 117 25964ft 436kts
30-Nov-20 19:25 33.956428 -119.549649 117 24353ft 416kts
30-Nov-20 19:26 33.897944 -119.433456 117 22803ft 398kts
30-Nov-20 19:27 33.842225 -119.320920 117 21208ft 384kts
30-Nov-20 19:28 33.788517 -119.211843 117 19636ft 371kts
30-Nov-20 19:29 33.736664 -119.107045 118 18093ft 360kts
30-Nov-20 19:30 33.686281 -119.005521 118 16522ft 349kts
30-Nov-20 19:31 33.636969 -118.906410 118 14922ft 340kts
30-Nov-20 19:32 33.589112 -118.810538 118 13347ft 333kts
30-Nov-20 19:33 33.565980 -118.707697 82 11799ft 324kts
30-Nov-20 19:34 33.574691 -118.600907 81 10288ft 314kts
30-Nov-20 19:35 33.583960 -118.500282 81 8793ft 297kts
30-Nov-20 19:36 33.593474 -118.403755 81 7285ft 284kts
30-Nov-20 19:37 33.602585 -118.315649 82 5783ft 248kts
30-Nov-20 19:38 33.611078 -118.238565 71 4988ft 222kts
30-Nov-20 19:39 33.646742 -118.178604 51 4991ft 221kts
30-Nov-20 19:40 33.683960 -118.120463 51 4499ft 219kts
30-Nov-20 19:41 33.720969 -118.062768 51 3994ft 218kts
30-Nov-20 19:42 33.758240 -118.004766 51 3991ft 218kts
30-Nov-20 19:43 33.793174 -117.950316 53 3523ft 193kts
30-Nov-20 19:44 33.792073 -117.894365 135 2943ft 187kts
30-Nov-20 19:45 33.756650 -117.861153 154 2272ft 147kts
30-Nov-20 19:46 33.717391 -117.849389 180 1024ft 143kts
30-Nov-20 19:47 33.681739 -117.865003 207 96ft 129kts
30-Nov-20 19:48 33.669002 -117.871069 3 65ft 4kts
30-Nov-20 19:49 33.671415 -117.868622 30 65ft 19kts
30-Nov-20 19:50 33.676480 -117.864974 27 65ft 22kts
30-Nov-20 19:51 33.678250 -117.863015 107 65ft 0kts

Navigation Log

Ident Type
Flight plan parsing failed, navigation log unavailable